createdAt,value
2023-03-16T00:02:13.941Z,1.55
2023-03-16T00:04:40.580Z,1.35
2023-03-16T00:07:09.667Z,1.50
2023-03-16T00:09:40.731Z,1.50
2023-03-16T00:12:16.313Z,1.80
2023-03-16T00:14:44.701Z,1.50
2023-03-16T00:17:20.261Z,1.70
2023-03-16T00:19:48.190Z,2.38
2023-03-16T00:22:16.062Z,1.70
2023-03-16T00:24:45.802Z,1.40
2023-03-16T00:27:14.696Z,1.55
2023-03-16T00:29:47.103Z,1.80
2023-03-16T00:32:18.927Z,1.80
2023-03-16T00:34:46.339Z,1.93
2023-03-16T00:37:15.634Z,2.25
2023-03-16T00:39:42.957Z,2.30
2023-03-16T00:42:11.552Z,2.33
2023-03-16T00:44:38.283Z,1.90
2023-03-16T00:47:06.322Z,1.90
2023-03-16T00:49:34.801Z,2.00
2023-03-16T00:52:05.434Z,2.20
2023-03-16T00:54:32.790Z,2.03
2023-03-16T00:57:00.728Z,1.95
2023-03-16T00:59:28.320Z,2.00
2023-03-16T01:01:55.442Z,2.13
2023-03-16T01:04:23.065Z,2.13
2023-03-16T01:06:49.908Z,1.98
2023-03-16T01:09:16.404Z,1.95
2023-03-16T01:11:46.418Z,2.17
2023-03-16T01:14:13.124Z,2.17
2023-03-16T01:16:39.582Z,1.73
2023-03-16T01:19:06.225Z,2.60
2023-03-16T01:21:33.740Z,2.05
2023-03-16T01:24:00.222Z,2.30
2023-03-16T01:26:26.817Z,2.50
2023-03-16T01:28:54.482Z,2.10
2023-03-16T01:31:21.242Z,2.22
2023-03-16T01:33:48.060Z,2.03
2023-03-16T01:36:17.436Z,2.17
2023-03-16T01:38:44.279Z,2.40
2023-03-16T01:41:11.298Z,2.20
2023-03-16T01:43:39.501Z,2.47
2023-03-16T01:46:05.983Z,2.72
2023-03-16T01:48:51.719Z,2.20
2023-03-16T01:51:27.217Z,2.47
2023-03-16T01:53:59.021Z,2.42
2023-03-16T01:56:34.534Z,2.53
2023-03-16T01:59:03.142Z,2.55
2023-03-16T02:01:29.717Z,2.57
2023-03-16T02:04:05.711Z,2.70
2023-03-16T02:06:33.108Z,2.65
2023-03-16T02:09:00.486Z,2.03
2023-03-16T02:11:28.116Z,2.50
2023-03-16T02:13:59.593Z,2.83
2023-03-16T02:16:26.483Z,2.63
2023-03-16T02:18:53.338Z,2.60
2023-03-16T02:21:33.762Z,2.95
2023-03-16T02:24:03.091Z,2.78
2023-03-16T02:26:53.533Z,2.20
2023-03-16T02:29:41.789Z,2.90
2023-03-16T02:32:10.260Z,2.83
2023-03-16T02:34:37.233Z,2.45
2023-03-16T02:37:04.245Z,2.35
2023-03-16T02:39:30.612Z,2.40
2023-03-16T02:41:57.135Z,2.40
2023-03-16T02:44:28.957Z,2.75
2023-03-16T02:47:01.223Z,2.72
2023-03-16T02:49:34.434Z,2.83
2023-03-16T02:52:00.905Z,2.93
2023-03-16T02:54:27.311Z,2.90
2023-03-16T02:56:53.665Z,2.70
2023-03-16T02:59:20.158Z,2.97
2023-03-16T03:01:46.547Z,2.65
2023-03-16T03:04:13.352Z,3.03
2023-03-16T03:06:40.284Z,3.00
2023-03-16T03:09:07.471Z,2.92
2023-03-16T03:11:33.882Z,2.08
2023-03-16T03:14:00.332Z,2.20
2023-03-16T03:16:26.787Z,2.67
2023-03-16T03:18:53.578Z,2.50
2023-03-16T03:21:20.340Z,2.33
2023-03-16T03:23:46.856Z,2.97
2023-03-16T03:26:17.129Z,2.90
2023-03-16T03:28:44.590Z,2.60
2023-03-16T03:31:16.436Z,2.65
2023-03-16T03:33:43.772Z,2.88
2023-03-16T03:36:11.438Z,2.67
2023-03-16T03:38:38.606Z,2.63
2023-03-16T03:41:07.277Z,2.10
2023-03-16T03:43:34.680Z,2.58
2023-03-16T03:46:03.466Z,2.50
2023-03-16T03:48:30.154Z,2.30
2023-03-16T03:50:56.608Z,2.60
2023-03-16T03:53:23.028Z,2.30
2023-03-16T03:55:49.891Z,2.47
2023-03-16T03:58:16.423Z,2.53
2023-03-16T04:00:42.906Z,2.72
2023-03-16T04:03:09.428Z,2.25
2023-03-16T04:05:35.966Z,2.87
2023-03-16T04:08:02.409Z,2.10
2023-03-16T04:10:30.626Z,2.53
2023-03-16T04:12:58.175Z,2.42
2023-03-16T04:15:24.617Z,2.35
2023-03-16T04:17:52.623Z,2.53
2023-03-16T04:20:20.000Z,2.10
2023-03-16T04:22:47.035Z,2.67
2023-03-16T04:25:15.568Z,2.28
2023-03-16T04:27:42.440Z,2.53
2023-03-16T04:30:13.055Z,2.57
2023-03-16T04:32:40.275Z,2.90
2023-03-16T04:35:07.025Z,2.70
2023-03-16T04:37:34.501Z,2.50
2023-03-16T04:40:01.002Z,2.70
2023-03-16T04:42:27.405Z,2.30
2023-03-16T04:44:53.804Z,2.92
2023-03-16T04:47:20.216Z,2.22
2023-03-16T04:49:46.661Z,2.50
2023-03-16T04:52:13.105Z,2.53
2023-03-16T04:54:39.465Z,2.30
2023-03-16T04:57:05.947Z,2.30
2023-03-16T04:59:32.405Z,2.53
2023-03-16T05:01:58.818Z,2.17
2023-03-16T05:04:25.203Z,2.67
2023-03-16T05:06:51.663Z,2.50
2023-03-16T05:09:18.134Z,2.08
2023-03-16T05:11:44.651Z,2.63
2023-03-16T05:14:11.092Z,2.25
2023-03-16T05:16:37.541Z,2.17
2023-03-16T05:19:04.935Z,1.87
2023-03-16T05:21:32.057Z,1.52
2023-03-16T05:23:58.602Z,2.40
2023-03-16T05:26:25.721Z,2.10
2023-03-16T05:28:52.131Z,2.10
2023-03-16T05:31:19.235Z,2.23
2023-03-16T05:33:45.844Z,2.38
2023-03-16T05:36:13.094Z,2.40
2023-03-16T05:38:39.577Z,1.80
2023-03-16T05:41:06.327Z,1.95
2023-03-16T05:43:34.296Z,2.33
2023-03-16T05:46:00.747Z,2.00
2023-03-16T05:48:27.480Z,2.15
2023-03-16T05:50:53.978Z,2.05
2023-03-16T05:53:21.186Z,2.35
2023-03-16T05:55:53.749Z,1.73
2023-03-16T05:58:21.101Z,2.03
2023-03-16T06:00:47.515Z,1.88
2023-03-16T06:03:13.965Z,1.90
2023-03-16T06:05:41.620Z,2.50
2023-03-16T06:08:09.186Z,1.60
2023-03-16T06:10:36.209Z,2.20
2023-03-16T06:13:02.563Z,2.25
2023-03-16T06:15:30.530Z,2.22
2023-03-16T06:17:56.995Z,1.83
2023-03-16T06:20:23.432Z,2.33
2023-03-16T06:22:50.111Z,1.90
2023-03-16T06:25:17.007Z,2.50
2023-03-16T06:27:43.545Z,2.40
2023-03-16T06:30:12.030Z,2.25
2023-03-16T06:32:39.109Z,2.13
2023-03-16T06:35:05.831Z,1.30
2023-03-16T06:37:32.538Z,1.98
2023-03-16T06:39:59.303Z,1.50
2023-03-16T06:42:25.854Z,1.73
2023-03-16T06:44:52.767Z,2.03
2023-03-16T06:47:20.051Z,1.88
2023-03-16T06:49:51.697Z,1.88
2023-03-16T06:52:18.055Z,1.55
2023-03-16T06:54:44.539Z,2.28
2023-03-16T06:57:11.476Z,1.90
2023-03-16T06:59:38.034Z,1.08
2023-03-16T07:02:04.524Z,1.83
2023-03-16T07:04:30.978Z,2.15
2023-03-16T07:06:57.475Z,1.77
2023-03-16T07:09:24.052Z,2.00
2023-03-16T07:11:52.577Z,1.58
2023-03-16T07:14:19.952Z,2.05
2023-03-16T07:16:46.508Z,1.80
2023-03-16T07:19:12.949Z,1.85
2023-03-16T07:21:40.763Z,1.10
2023-03-16T07:24:09.191Z,1.33
2023-03-16T07:26:35.561Z,1.52
2023-03-16T07:29:02.127Z,1.88
2023-03-16T07:31:28.797Z,1.90
2023-03-16T07:33:55.273Z,1.90
2023-03-16T07:36:21.704Z,1.55
2023-03-16T07:38:48.150Z,1.42
2023-03-16T07:41:14.606Z,1.58
2023-03-16T07:43:41.022Z,1.80
2023-03-16T07:46:07.462Z,1.77
2023-03-16T07:48:33.950Z,1.92
2023-03-16T07:51:00.685Z,1.65
2023-03-16T07:53:27.097Z,2.08
2023-03-16T07:55:53.548Z,1.70
2023-03-16T07:58:20.031Z,1.73
2023-03-16T08:00:46.482Z,1.92
2023-03-16T08:03:13.822Z,1.75
2023-03-16T08:05:40.267Z,1.95
2023-03-16T08:08:09.590Z,2.20
2023-03-16T08:10:36.018Z,2.10
2023-03-16T08:13:04.776Z,1.20
2023-03-16T08:15:33.835Z,1.27
2023-03-16T08:18:02.474Z,1.65
2023-03-16T08:20:29.918Z,2.03
2023-03-16T08:22:56.594Z,1.83
2023-03-16T08:25:23.079Z,1.60
2023-03-16T08:27:50.162Z,1.30
2023-03-16T08:30:17.365Z,1.77
2023-03-16T08:32:43.841Z,1.80
2023-03-16T08:35:13.982Z,1.53
2023-03-16T08:37:41.727Z,1.48
2023-03-16T08:40:11.170Z,1.52
2023-03-16T08:42:38.811Z,1.40
2023-03-16T08:45:11.715Z,1.60
2023-03-16T08:47:40.476Z,1.30
2023-03-16T08:50:08.776Z,1.55
2023-03-16T08:52:36.454Z,1.70
2023-03-16T08:55:05.492Z,1.80
2023-03-16T08:57:34.992Z,1.88
2023-03-16T09:00:04.172Z,1.63
2023-03-16T09:02:30.539Z,1.50
2023-03-16T09:04:57.046Z,1.55
2023-03-16T09:07:23.467Z,1.95
2023-03-16T09:09:51.498Z,1.30
2023-03-16T09:12:18.663Z,1.30
2023-03-16T09:14:45.911Z,2.10
2023-03-16T09:17:12.844Z,1.73
2023-03-16T09:20:03.135Z,1.30
2023-03-16T09:22:25.755Z,1.85
2023-03-16T09:24:52.214Z,1.60
2023-03-16T09:27:19.130Z,1.38
2023-03-16T09:29:46.610Z,1.85
2023-03-16T09:32:14.107Z,1.92
2023-03-16T09:34:40.703Z,1.60
2023-03-16T09:37:07.242Z,1.63
2023-03-16T09:39:34.066Z,1.60
2023-03-16T09:42:27.444Z,1.60
2023-03-16T09:45:18.773Z,1.05
2023-03-16T09:47:48.500Z,1.75
2023-03-16T09:50:38.193Z,1.50
2023-03-16T09:53:29.612Z,1.55
2023-03-16T09:56:03.392Z,1.73
2023-03-16T09:58:32.126Z,1.83
2023-03-16T10:01:14.397Z,1.85
2023-03-16T10:04:05.318Z,2.03
2023-03-16T10:06:33.009Z,1.00
2023-03-16T10:09:14.634Z,1.70
2023-03-16T10:11:49.498Z,1.65
2023-03-16T10:14:51.011Z,1.52
2023-03-16T10:17:23.257Z,1.33
2023-03-16T10:19:53.867Z,1.38
2023-03-16T10:22:26.492Z,1.45
2023-03-16T10:25:19.165Z,1.50
2023-03-16T10:27:46.564Z,1.52
2023-03-16T10:30:19.996Z,1.33
2023-03-16T10:32:47.129Z,1.38
2023-03-16T10:35:36.144Z,1.40
2023-03-16T10:38:02.531Z,1.40
2023-03-16T10:40:33.105Z,1.63
2023-03-16T10:43:26.315Z,1.10
2023-03-16T10:45:59.667Z,1.35
2023-03-16T10:48:28.306Z,1.50
2023-03-16T10:50:57.564Z,1.42
2023-03-16T10:53:29.360Z,1.73
2023-03-16T10:56:05.546Z,1.33
2023-03-16T10:58:34.243Z,1.13
2023-03-16T11:01:01.632Z,1.30
2023-03-16T11:03:38.766Z,1.58
2023-03-16T11:06:07.494Z,1.25
2023-03-16T11:08:37.585Z,1.10
2023-03-16T11:11:14.605Z,2.03
2023-03-16T11:13:45.382Z,1.30
2023-03-16T11:16:31.631Z,1.38
2023-03-16T11:19:27.194Z,1.00
2023-03-16T11:22:00.239Z,1.33
2023-03-16T11:24:39.728Z,1.70
2023-03-16T11:27:18.137Z,1.20
2023-03-16T11:30:27.108Z,1.25
2023-03-16T11:32:54.255Z,1.23
2023-03-16T11:35:30.912Z,1.07
2023-03-16T11:38:18.843Z,1.20
2023-03-16T11:40:56.784Z,1.00
2023-03-16T11:44:08.562Z,1.63
2023-03-16T11:46:45.208Z,1.33
2023-03-16T11:49:44.536Z,1.40
2023-03-16T11:52:31.972Z,1.15
2023-03-16T11:55:11.146Z,1.50
2023-03-16T11:58:28.602Z,1.50
2023-03-16T12:01:08.658Z,1.27
2023-03-16T12:04:01.973Z,1.17
2023-03-16T12:06:31.558Z,1.00
2023-03-16T12:09:16.657Z,1.20
2023-03-16T12:12:02.763Z,1.08
2023-03-16T12:14:40.908Z,1.40
2023-03-16T12:17:13.215Z,1.30
2023-03-16T12:20:05.892Z,1.00
2023-03-16T12:22:44.370Z,1.27
2023-03-16T12:25:27.786Z,1.05
2023-03-16T12:27:58.320Z,0.90
2023-03-16T12:30:32.422Z,1.10
2023-03-16T12:33:07.640Z,1.20
2023-03-16T12:35:46.821Z,1.00
2023-03-16T12:38:51.011Z,1.40
2023-03-16T12:41:55.309Z,1.05
2023-03-16T12:44:44.236Z,1.10
2023-03-16T12:47:32.719Z,0.90
2023-03-16T12:50:12.668Z,1.13
2023-03-16T12:52:44.769Z,1.60
2023-03-16T12:55:21.389Z,0.70
2023-03-16T12:57:51.564Z,0.80
2023-03-16T13:00:19.524Z,1.10
2023-03-16T13:02:53.514Z,1.25
2023-03-16T13:05:32.096Z,1.05
2023-03-16T13:08:11.756Z,1.00
2023-03-16T13:10:38.695Z,0.70
2023-03-16T13:13:17.130Z,0.68
2023-03-16T13:15:47.505Z,1.15
2023-03-16T13:18:16.979Z,0.82
2023-03-16T13:20:57.220Z,0.60
2023-03-16T13:23:25.825Z,0.70
2023-03-16T13:26:04.058Z,0.73
2023-03-16T13:28:35.160Z,0.63
2023-03-16T13:31:02.704Z,0.75
2023-03-16T13:33:37.318Z,0.57
2023-03-16T13:36:06.223Z,0.70
2023-03-16T13:38:32.736Z,0.77
2023-03-16T13:41:05.997Z,0.75
2023-03-16T13:43:35.647Z,0.68
2023-03-16T13:46:03.341Z,1.02
2023-03-16T13:48:29.921Z,0.70
2023-03-16T13:50:57.888Z,0.70
2023-03-16T13:53:32.935Z,0.85
2023-03-16T13:56:02.139Z,0.65
2023-03-16T13:58:35.561Z,0.57
2023-03-16T14:01:05.027Z,0.53
2023-03-16T14:03:35.954Z,0.40
2023-03-16T14:06:04.556Z,0.60
2023-03-16T14:08:31.681Z,0.40
2023-03-16T14:11:01.100Z,0.50
2023-03-16T14:13:27.705Z,0.83
2023-03-16T14:15:56.453Z,0.50
2023-03-16T14:18:26.907Z,0.70
2023-03-16T14:20:55.419Z,0.50
2023-03-16T14:23:31.174Z,0.90
2023-03-16T14:25:57.695Z,0.50
2023-03-16T14:28:32.305Z,0.40
2023-03-16T14:31:06.379Z,1.10
2023-03-16T14:33:37.650Z,0.73
2023-03-16T14:36:11.615Z,0.77
2023-03-16T14:38:40.473Z,1.47
2023-03-16T14:41:24.296Z,0.98
2023-03-16T14:44:01.839Z,0.65
2023-03-16T14:46:29.944Z,0.47
2023-03-16T14:49:29.121Z,0.82
2023-03-16T14:52:02.739Z,0.50
2023-03-16T14:54:29.692Z,0.60
2023-03-16T14:57:01.506Z,0.68
2023-03-16T14:59:28.630Z,0.77
2023-03-16T15:01:56.643Z,0.40
2023-03-16T15:04:30.019Z,0.60
2023-03-16T15:06:57.614Z,0.70
2023-03-16T15:09:39.276Z,0.77
2023-03-16T15:12:14.775Z,0.43
2023-03-16T15:14:59.879Z,0.65
2023-03-16T15:17:27.017Z,0.80
2023-03-16T15:19:53.583Z,0.30
2023-03-16T15:22:27.895Z,0.82
2023-03-16T15:24:55.870Z,0.65
2023-03-16T15:27:31.527Z,1.58
2023-03-16T15:29:57.937Z,3.57
2023-03-16T15:32:24.342Z,1.80
2023-03-16T15:34:50.826Z,1.10
2023-03-16T15:37:19.408Z,0.63
2023-03-16T15:39:47.312Z,0.77
2023-03-16T15:42:15.996Z,0.37
2023-03-16T15:44:43.035Z,0.50
2023-03-16T15:47:10.823Z,0.60
2023-03-16T15:49:47.094Z,0.40
2023-03-16T15:52:30.401Z,0.45
2023-03-16T15:54:59.191Z,0.40
2023-03-16T15:57:26.133Z,0.50
2023-03-16T15:59:52.501Z,0.40
2023-03-16T16:02:31.037Z,0.57
2023-03-16T16:04:58.876Z,0.57
2023-03-16T16:07:25.443Z,0.43
2023-03-16T16:09:51.861Z,0.40
2023-03-16T16:12:20.322Z,0.40
2023-03-16T16:14:47.150Z,0.43
2023-03-16T16:17:24.799Z,0.30
2023-03-16T16:19:53.541Z,0.70
2023-03-16T16:22:20.208Z,0.65
2023-03-16T16:24:47.140Z,0.85
2023-03-16T16:27:13.535Z,0.75
2023-03-16T16:29:43.490Z,0.68
2023-03-16T16:32:22.578Z,0.60
2023-03-16T16:35:03.324Z,0.75
2023-03-16T16:37:30.470Z,1.08
2023-03-16T16:39:56.904Z,0.90
2023-03-16T16:42:23.313Z,0.70
2023-03-16T16:44:57.117Z,0.80
2023-03-16T16:47:26.820Z,0.60
2023-03-16T16:49:53.388Z,0.50
2023-03-16T16:52:20.238Z,0.73
2023-03-16T16:54:46.635Z,1.00
2023-03-16T16:57:20.262Z,0.50
2023-03-16T16:59:48.334Z,0.70
2023-03-16T17:02:32.786Z,0.57
2023-03-16T17:04:59.385Z,0.60
2023-03-16T17:07:25.811Z,0.80
2023-03-16T17:09:52.242Z,0.83
2023-03-16T17:12:22.304Z,1.45
2023-03-16T17:14:50.022Z,1.20
2023-03-16T17:17:17.772Z,0.90
2023-03-16T17:19:46.764Z,1.60
2023-03-16T17:22:22.826Z,1.77
2023-03-16T17:24:49.606Z,1.02
2023-03-16T17:27:24.714Z,2.72
2023-03-16T17:29:51.704Z,2.80
2023-03-16T17:32:25.468Z,1.35
2023-03-16T17:34:52.303Z,0.90
2023-03-16T17:37:22.061Z,0.98
2023-03-16T17:39:48.961Z,0.70
2023-03-16T17:42:18.440Z,0.60
2023-03-16T17:44:53.080Z,0.70
2023-03-16T17:47:24.569Z,0.70
2023-03-16T17:49:51.397Z,0.63
2023-03-16T17:52:23.535Z,0.77
2023-03-16T17:54:51.947Z,0.70
2023-03-16T17:57:31.134Z,0.75
2023-03-16T17:59:59.920Z,0.50
2023-03-16T18:02:49.732Z,0.63
2023-03-16T18:05:19.098Z,0.70
2023-03-16T18:07:46.736Z,0.60
2023-03-16T18:10:18.339Z,1.10
2023-03-16T18:12:46.305Z,0.70
2023-03-16T18:15:18.316Z,0.60
2023-03-16T18:17:48.018Z,1.08
2023-03-16T18:20:28.202Z,1.00
2023-03-16T18:22:56.503Z,0.70
2023-03-16T18:25:35.224Z,0.77
2023-03-16T18:28:02.584Z,1.08
2023-03-16T18:30:30.701Z,0.90
2023-03-16T18:32:58.402Z,1.00
2023-03-16T18:35:24.978Z,0.93
2023-03-16T18:37:53.464Z,0.87
2023-03-16T18:40:20.889Z,0.90
2023-03-16T18:42:47.648Z,1.23
2023-03-16T18:45:16.467Z,1.48
2023-03-16T18:47:52.544Z,0.70
2023-03-16T18:50:22.846Z,0.93
2023-03-16T18:52:50.323Z,0.77
2023-03-16T18:55:21.021Z,0.80
2023-03-16T18:57:51.491Z,0.70
2023-03-16T19:00:22.323Z,1.10
2023-03-16T19:02:53.373Z,0.80
2023-03-16T19:05:26.176Z,0.75
2023-03-16T19:07:53.083Z,0.90
2023-03-16T19:10:22.538Z,0.80
2023-03-16T19:12:49.952Z,1.50
2023-03-16T19:15:31.838Z,0.70
2023-03-16T19:17:58.583Z,0.70
2023-03-16T19:20:31.522Z,0.80
2023-03-16T19:23:03.060Z,1.02
2023-03-16T19:25:35.969Z,0.60
2023-03-16T19:28:05.664Z,0.67
2023-03-16T19:30:33.655Z,0.80
2023-03-16T19:33:00.715Z,0.82
2023-03-16T19:35:44.909Z,0.80
2023-03-16T19:38:15.604Z,0.80
2023-03-16T19:40:42.747Z,0.53
2023-03-16T19:43:18.299Z,1.00
2023-03-16T19:45:46.660Z,0.60
2023-03-16T19:48:20.166Z,0.80
2023-03-16T19:50:49.478Z,0.80
2023-03-16T19:53:21.460Z,0.80
2023-03-16T19:55:50.188Z,1.00
2023-03-16T19:58:33.265Z,1.23
2023-03-16T20:01:00.906Z,0.70
2023-03-16T20:03:28.250Z,0.85
2023-03-16T20:05:54.663Z,0.60
2023-03-16T20:08:27.476Z,0.80
2023-03-16T20:11:03.253Z,0.77
2023-03-16T20:13:32.186Z,0.80
2023-03-16T20:15:58.761Z,1.08
2023-03-16T20:18:25.585Z,0.73
2023-03-16T20:20:52.050Z,0.80
2023-03-16T20:23:28.126Z,0.60
2023-03-16T20:25:56.996Z,0.75
2023-03-16T20:28:27.969Z,0.80
2023-03-16T20:30:54.389Z,0.70
2023-03-16T20:33:24.197Z,0.90
2023-03-16T20:35:53.405Z,0.75
2023-03-16T20:38:22.094Z,0.70
2023-03-16T20:40:52.225Z,0.90
2023-03-16T20:43:28.926Z,0.83
2023-03-16T20:45:58.004Z,0.85
2023-03-16T20:48:27.478Z,0.98
2023-03-16T20:50:55.995Z,0.80
2023-03-16T20:53:23.407Z,0.85
2023-03-16T20:55:51.475Z,1.27
2023-03-16T20:58:25.488Z,0.90
2023-03-16T21:00:57.485Z,0.90
2023-03-16T21:03:27.478Z,1.55
2023-03-16T21:05:55.502Z,0.80
2023-03-16T21:08:22.142Z,0.50
2023-03-16T21:10:51.143Z,0.60
2023-03-16T21:13:31.418Z,0.82
2023-03-16T21:16:00.295Z,1.15
2023-03-16T21:18:27.853Z,0.82
2023-03-16T21:20:56.067Z,0.70
2023-03-16T21:23:24.054Z,0.80
2023-03-16T21:25:56.778Z,0.90
2023-03-16T21:28:25.429Z,0.68
2023-03-16T21:30:54.853Z,1.00
2023-03-16T21:33:37.320Z,0.70
2023-03-16T21:36:07.099Z,0.90
2023-03-16T21:38:33.974Z,0.70
2023-03-16T21:41:00.615Z,0.60
2023-03-16T21:43:27.676Z,1.10
2023-03-16T21:45:55.134Z,1.00
2023-03-16T21:48:24.861Z,1.30
2023-03-16T21:50:53.692Z,1.05
2023-03-16T21:53:22.651Z,1.20
2023-03-16T21:55:50.769Z,0.95
2023-03-16T21:58:17.965Z,0.90
2023-03-16T22:00:45.861Z,0.80
2023-03-16T22:03:50.064Z,1.00
2023-03-16T22:06:17.627Z,1.08
2023-03-16T22:08:44.143Z,0.75
2023-03-16T22:11:19.518Z,0.90
2023-03-16T22:13:46.460Z,0.90
2023-03-16T22:16:16.342Z,0.80
2023-03-16T22:18:44.652Z,1.38
2023-03-16T22:21:38.472Z,1.58
2023-03-16T22:24:12.817Z,0.97
2023-03-16T22:26:39.643Z,0.93
2023-03-16T22:29:23.437Z,0.90
2023-03-16T22:31:55.237Z,1.00
2023-03-16T22:34:44.313Z,1.00
2023-03-16T22:37:14.454Z,1.00
2023-03-16T22:39:40.971Z,1.33
2023-03-16T22:42:19.231Z,1.25
2023-03-16T22:44:45.749Z,0.95
2023-03-16T22:47:23.279Z,0.80
2023-03-16T22:49:49.705Z,1.10
2023-03-16T22:52:17.216Z,0.70
2023-03-16T22:54:44.602Z,0.95
2023-03-16T22:57:16.860Z,0.98
2023-03-16T22:59:45.678Z,1.15
2023-03-16T23:02:15.825Z,1.33
2023-03-16T23:04:42.363Z,1.10
2023-03-16T23:07:13.066Z,1.25
2023-03-16T23:09:39.837Z,1.70
2023-03-16T23:12:15.152Z,1.00
2023-03-16T23:14:42.215Z,1.47
2023-03-16T23:17:26.992Z,1.20
2023-03-16T23:19:54.211Z,1.00
2023-03-16T23:22:20.571Z,1.00
2023-03-16T23:24:47.310Z,1.20
2023-03-16T23:27:20.097Z,1.27
2023-03-16T23:29:46.856Z,1.08
2023-03-16T23:32:16.981Z,1.40
2023-03-16T23:34:43.427Z,0.90
2023-03-16T23:37:09.877Z,1.10
2023-03-16T23:39:36.437Z,0.80
2023-03-16T23:42:03.874Z,0.80
2023-03-16T23:44:30.634Z,1.02
2023-03-16T23:46:58.617Z,1.05
2023-03-16T23:49:32.529Z,1.05
2023-03-16T23:52:01.446Z,1.77
2023-03-16T23:54:30.646Z,1.10
2023-03-16T23:56:57.229Z,0.95
2023-03-16T23:59:24.763Z,1.25
